createdAt,value
2023-01-17T00:01:13.990Z,100.00
2023-01-17T00:04:01.853Z,100.00
2023-01-17T00:06:47.415Z,100.00
2023-01-17T00:09:33.472Z,100.00
2023-01-17T00:12:01.982Z,100.00
2023-01-17T00:14:29.205Z,100.00
2023-01-17T00:16:56.538Z,100.00
2023-01-17T00:19:41.618Z,100.00
2023-01-17T00:22:30.554Z,100.00
2023-01-17T00:25:15.769Z,100.00
2023-01-17T00:27:42.447Z,100.00
2023-01-17T00:30:10.373Z,100.00
2023-01-17T00:32:38.110Z,100.00
2023-01-17T00:35:04.789Z,100.00
2023-01-17T00:37:31.701Z,100.00
2023-01-17T00:39:58.347Z,100.00
2023-01-17T00:42:24.995Z,100.00
2023-01-17T00:45:10.728Z,100.00
2023-01-17T00:47:57.009Z,100.00
2023-01-17T00:50:42.813Z,100.00
2023-01-17T00:53:28.386Z,100.00
2023-01-17T00:56:14.595Z,100.00
2023-01-17T00:59:00.510Z,100.00
2023-01-17T01:01:46.782Z,100.00
2023-01-17T01:04:32.584Z,100.00
2023-01-17T01:07:18.411Z,100.00
2023-01-17T01:10:05.474Z,100.00
2023-01-17T01:12:51.021Z,100.00
2023-01-17T01:15:36.238Z,100.00
2023-01-17T01:18:25.808Z,100.00
2023-01-17T01:21:11.517Z,100.00
2023-01-17T01:23:56.884Z,100.00
2023-01-17T01:26:42.383Z,100.00
2023-01-17T01:29:27.764Z,100.00
2023-01-17T01:32:14.150Z,100.00
2023-01-17T01:34:40.904Z,100.00
2023-01-17T01:37:07.571Z,100.00
2023-01-17T01:39:34.936Z,100.00
2023-01-17T01:42:01.958Z,100.00
2023-01-17T01:44:48.704Z,100.00
2023-01-17T01:47:22.527Z,100.00
2023-01-17T01:49:50.654Z,100.00
2023-01-17T01:52:19.176Z,100.00
2023-01-17T01:54:50.911Z,100.00
2023-01-17T01:57:19.301Z,100.00
2023-01-17T01:59:51.608Z,100.00
2023-01-17T02:02:19.150Z,100.00
2023-01-17T02:04:47.009Z,100.00
2023-01-17T02:07:19.992Z,100.00
2023-01-17T02:09:48.313Z,100.00
2023-01-17T02:12:22.165Z,100.00
2023-01-17T02:14:50.176Z,100.00
2023-01-17T02:17:20.860Z,100.00
2023-01-17T02:20:16.384Z,100.00
2023-01-17T02:22:49.334Z,100.00
2023-01-17T02:25:27.431Z,100.00
2023-01-17T02:28:12.900Z,100.00
2023-01-17T02:30:42.459Z,100.00
2023-01-17T02:33:19.417Z,100.00
2023-01-17T02:35:56.407Z,100.00
2023-01-17T02:38:35.272Z,100.00
2023-01-17T02:41:08.001Z,100.00
2023-01-17T02:43:37.156Z,100.00
2023-01-17T02:46:04.372Z,100.00
2023-01-17T02:48:32.520Z,100.00
2023-01-17T02:50:59.434Z,100.00
2023-01-17T02:53:26.475Z,100.00
2023-01-17T02:56:12.298Z,100.00
2023-01-17T02:58:42.039Z,100.00
2023-01-17T03:01:34.949Z,100.00
2023-01-17T03:04:08.593Z,100.00
2023-01-17T03:06:52.182Z,100.00
2023-01-17T03:09:19.857Z,100.00
2023-01-17T03:11:46.897Z,100.00
2023-01-17T03:14:13.604Z,100.00
2023-01-17T03:16:40.235Z,100.00
2023-01-17T03:19:09.885Z,100.00
2023-01-17T03:21:36.709Z,100.00
2023-01-17T03:24:04.510Z,100.00
2023-01-17T03:26:31.783Z,100.00
2023-01-17T03:28:58.529Z,100.00
2023-01-17T03:31:25.457Z,100.00
2023-01-17T03:33:52.650Z,100.00
2023-01-17T03:36:20.353Z,100.00
2023-01-17T03:38:47.590Z,100.00
2023-01-17T03:41:14.359Z,100.00
2023-01-17T03:43:40.979Z,100.00
2023-01-17T03:46:17.313Z,100.00
2023-01-17T03:48:44.590Z,100.00
2023-01-17T03:51:11.244Z,100.00
2023-01-17T03:53:37.764Z,100.00
2023-01-17T03:56:05.239Z,100.00
2023-01-17T03:58:32.197Z,100.00
2023-01-17T04:00:58.854Z,100.00
2023-01-17T04:03:26.083Z,100.00
2023-01-17T04:05:53.025Z,100.00
2023-01-17T04:08:19.867Z,100.00
2023-01-17T04:10:46.790Z,100.00
2023-01-17T04:13:13.831Z,100.00
2023-01-17T04:15:40.719Z,100.00
2023-01-17T04:18:07.704Z,100.00
2023-01-17T04:20:36.492Z,100.00
2023-01-17T04:23:03.605Z,100.00
2023-01-17T04:25:31.111Z,100.00
2023-01-17T04:27:58.654Z,100.00
2023-01-17T04:30:25.270Z,100.00
2023-01-17T04:32:52.453Z,100.00
2023-01-17T04:35:19.806Z,100.00
2023-01-17T04:37:47.315Z,100.00
2023-01-17T04:40:14.785Z,100.00
2023-01-17T04:42:43.971Z,100.00
2023-01-17T04:45:11.232Z,100.00
2023-01-17T04:47:37.973Z,100.00
2023-01-17T04:50:05.269Z,100.00
2023-01-17T04:52:32.731Z,100.00
2023-01-17T04:54:59.677Z,100.00
2023-01-17T04:57:27.175Z,100.00
2023-01-17T04:59:54.644Z,100.00
2023-01-17T05:02:21.659Z,100.00
2023-01-17T05:04:48.389Z,100.00
2023-01-17T05:07:15.947Z,100.00
2023-01-17T05:09:43.913Z,100.00
2023-01-17T05:12:10.908Z,100.00
2023-01-17T05:14:40.589Z,100.00
2023-01-17T05:17:07.878Z,100.00
2023-01-17T05:19:35.003Z,100.00
2023-01-17T05:22:04.040Z,100.00
2023-01-17T05:24:32.328Z,100.00
2023-01-17T05:27:03.120Z,100.00
2023-01-17T05:29:30.695Z,100.00
2023-01-17T05:31:58.359Z,100.00
2023-01-17T05:34:25.342Z,100.00
2023-01-17T05:36:52.736Z,100.00
2023-01-17T05:39:19.327Z,100.00
2023-01-17T05:41:46.689Z,100.00
2023-01-17T05:44:15.268Z,100.00
2023-01-17T05:46:42.573Z,100.00
2023-01-17T05:49:09.372Z,100.00
2023-01-17T05:51:37.878Z,100.00
2023-01-17T05:54:05.273Z,100.00
2023-01-17T05:56:33.109Z,100.00
2023-01-17T05:59:00.126Z,100.00
2023-01-17T06:01:27.894Z,100.00
2023-01-17T06:03:54.590Z,100.00
2023-01-17T06:06:21.796Z,100.00
2023-01-17T06:08:48.351Z,100.00
2023-01-17T06:11:15.225Z,100.00
2023-01-17T06:13:41.806Z,100.00
2023-01-17T06:16:08.734Z,100.00
2023-01-17T06:18:35.590Z,100.00
2023-01-17T06:21:02.784Z,100.00
2023-01-17T06:23:29.529Z,100.00
2023-01-17T06:25:56.573Z,100.00
2023-01-17T06:28:23.728Z,100.00
2023-01-17T06:30:50.813Z,100.00
2023-01-17T06:33:18.468Z,100.00
2023-01-17T06:35:52.150Z,100.00
2023-01-17T06:38:19.361Z,100.00
2023-01-17T06:40:46.194Z,100.00
2023-01-17T06:43:13.340Z,100.00
2023-01-17T06:45:39.859Z,100.00
2023-01-17T06:48:06.894Z,100.00
2023-01-17T06:50:34.306Z,100.00
2023-01-17T06:53:03.032Z,100.00
2023-01-17T06:55:30.750Z,100.00
2023-01-17T06:57:59.530Z,100.00
2023-01-17T07:00:27.027Z,100.00
2023-01-17T07:02:54.025Z,100.00
2023-01-17T07:05:21.572Z,100.00
2023-01-17T07:07:48.408Z,100.00
2023-01-17T07:10:15.494Z,100.00
2023-01-17T07:12:43.116Z,100.00
2023-01-17T07:15:10.399Z,100.00
2023-01-17T07:17:37.542Z,100.00
2023-01-17T07:20:04.804Z,100.00
2023-01-17T07:22:32.437Z,99.49
2023-01-17T07:24:59.022Z,100.00
2023-01-17T07:27:26.007Z,100.00
2023-01-17T07:29:54.309Z,99.51
2023-01-17T07:32:21.139Z,99.17
2023-01-17T07:34:48.322Z,99.42
2023-01-17T07:37:15.934Z,98.70
2023-01-17T07:39:43.536Z,99.36
2023-01-17T07:42:10.484Z,98.89
2023-01-17T07:44:41.265Z,100.00
2023-01-17T07:47:08.927Z,99.91
2023-01-17T07:49:35.955Z,99.53
2023-01-17T07:52:03.521Z,99.22
2023-01-17T07:54:30.468Z,99.22
2023-01-17T07:56:57.422Z,99.54
2023-01-17T07:59:25.248Z,99.07
2023-01-17T08:01:51.942Z,99.41
2023-01-17T08:04:18.755Z,98.98
2023-01-17T08:06:48.674Z,98.79
2023-01-17T08:09:16.248Z,99.79
2023-01-17T08:11:43.264Z,98.42
2023-01-17T08:14:09.767Z,97.86
2023-01-17T08:16:37.736Z,98.66
2023-01-17T08:19:04.676Z,98.76
2023-01-17T08:21:31.774Z,99.57
2023-01-17T08:23:58.488Z,99.02
2023-01-17T08:26:25.987Z,98.34
2023-01-17T08:28:57.183Z,99.06
2023-01-17T08:31:24.751Z,98.57
2023-01-17T08:33:51.837Z,98.25
2023-01-17T08:36:18.878Z,98.42
2023-01-17T08:38:45.468Z,99.42
2023-01-17T08:41:12.998Z,99.02
2023-01-17T08:43:39.806Z,98.03
2023-01-17T08:46:07.002Z,97.17
2023-01-17T08:48:35.104Z,97.05
2023-01-17T08:51:02.193Z,98.72
2023-01-17T08:53:29.889Z,97.31
2023-01-17T08:56:00.300Z,96.97
2023-01-17T08:58:30.493Z,96.81
2023-01-17T09:01:02.639Z,96.64
2023-01-17T09:03:30.290Z,96.74
2023-01-17T09:06:10.881Z,96.86
2023-01-17T09:08:39.064Z,96.59
2023-01-17T09:11:10.476Z,95.63
2023-01-17T09:13:39.032Z,95.48
2023-01-17T09:16:05.920Z,97.04
2023-01-17T09:18:34.221Z,97.20
2023-01-17T09:21:09.255Z,95.67
2023-01-17T09:23:35.844Z,95.91
2023-01-17T09:26:02.785Z,95.19
2023-01-17T09:28:29.759Z,96.32
2023-01-17T09:30:57.399Z,94.79
2023-01-17T09:33:25.220Z,96.12
2023-01-17T09:35:52.578Z,95.96
2023-01-17T09:38:21.629Z,95.51
2023-01-17T09:40:48.863Z,95.32
2023-01-17T09:43:21.871Z,95.06
2023-01-17T09:45:49.028Z,95.21
2023-01-17T09:48:20.597Z,94.31
2023-01-17T09:50:52.144Z,94.50
2023-01-17T09:53:20.909Z,94.45
2023-01-17T09:56:06.925Z,93.61
2023-01-17T09:58:37.174Z,93.79
2023-01-17T10:01:15.531Z,93.78
2023-01-17T10:03:52.002Z,93.38
2023-01-17T10:06:29.060Z,94.22
2023-01-17T10:09:14.321Z,93.79
2023-01-17T10:11:53.205Z,93.71
2023-01-17T10:14:26.041Z,93.45
2023-01-17T10:17:08.553Z,93.54
2023-01-17T10:19:46.052Z,93.83
2023-01-17T10:22:32.036Z,94.08
2023-01-17T10:25:17.829Z,94.48
2023-01-17T10:28:03.924Z,94.95
2023-01-17T10:30:36.560Z,92.39
2023-01-17T10:33:12.682Z,92.18
2023-01-17T10:35:44.806Z,92.46
2023-01-17T10:38:13.090Z,92.02
2023-01-17T10:40:51.206Z,91.00
2023-01-17T10:43:37.554Z,91.54
2023-01-17T10:46:05.207Z,91.82
2023-01-17T10:48:32.577Z,90.72
2023-01-17T10:51:02.544Z,90.21
2023-01-17T10:53:38.749Z,89.97
2023-01-17T10:56:05.627Z,90.79
2023-01-17T10:58:33.162Z,88.30
2023-01-17T11:01:01.461Z,88.35
2023-01-17T11:03:29.757Z,88.52
2023-01-17T11:06:17.062Z,89.28
2023-01-17T11:08:53.531Z,89.41
2023-01-17T11:11:22.153Z,90.00
2023-01-17T11:13:50.643Z,88.78
2023-01-17T11:16:23.058Z,87.83
2023-01-17T11:19:05.814Z,89.00
2023-01-17T11:21:33.239Z,89.19
2023-01-17T11:24:08.794Z,87.93
2023-01-17T11:26:36.391Z,86.30
2023-01-17T11:29:15.698Z,86.58
2023-01-17T11:31:43.153Z,85.78
2023-01-17T11:34:14.251Z,86.28
2023-01-17T11:36:41.589Z,86.02
2023-01-17T11:39:17.720Z,85.05
2023-01-17T11:41:45.467Z,83.96
2023-01-17T11:44:31.753Z,83.88
2023-01-17T11:47:14.391Z,82.80
2023-01-17T11:49:42.109Z,82.98
2023-01-17T11:52:29.175Z,83.32
2023-01-17T11:54:56.305Z,82.96
2023-01-17T11:57:26.170Z,82.97
2023-01-17T12:00:04.936Z,82.76
2023-01-17T12:02:45.653Z,83.16
2023-01-17T12:05:34.323Z,82.65
2023-01-17T12:08:04.247Z,82.59
2023-01-17T12:10:46.477Z,80.53
2023-01-17T12:13:34.892Z,81.34
2023-01-17T12:16:31.211Z,81.23
2023-01-17T12:19:17.152Z,79.92
2023-01-17T12:21:46.871Z,80.18
2023-01-17T12:24:32.708Z,81.07
2023-01-17T12:27:16.161Z,79.41
2023-01-17T12:30:03.139Z,79.51
2023-01-17T12:32:39.639Z,78.84
2023-01-17T12:35:06.185Z,76.76
2023-01-17T12:37:37.191Z,78.11
2023-01-17T12:40:27.295Z,78.08
2023-01-17T12:43:02.781Z,78.40
2023-01-17T12:45:33.014Z,78.21
2023-01-17T12:48:04.705Z,77.93
2023-01-17T12:50:41.551Z,78.24
2023-01-17T12:53:19.550Z,78.02
2023-01-17T12:55:49.839Z,79.26
2023-01-17T12:58:22.755Z,79.02
2023-01-17T13:00:55.074Z,78.79
2023-01-17T13:03:31.544Z,78.27
2023-01-17T13:06:01.433Z,75.80
2023-01-17T13:08:34.506Z,75.13
2023-01-17T13:11:08.468Z,73.04
2023-01-17T13:13:36.211Z,73.42
2023-01-17T13:16:07.010Z,74.50
2023-01-17T13:18:35.650Z,74.19
2023-01-17T13:21:09.398Z,74.83
2023-01-17T13:23:39.456Z,73.47
2023-01-17T13:26:10.072Z,72.70
2023-01-17T13:28:53.592Z,73.32
2023-01-17T13:31:40.747Z,75.29
2023-01-17T13:34:38.074Z,73.53
2023-01-17T13:37:04.803Z,74.47
2023-01-17T13:39:43.076Z,75.48
2023-01-17T13:42:21.773Z,75.75
2023-01-17T13:44:49.776Z,78.87
2023-01-17T13:47:16.580Z,75.54
2023-01-17T13:49:45.172Z,76.57
2023-01-17T13:52:23.051Z,77.32
2023-01-17T13:55:01.048Z,77.02
2023-01-17T13:57:30.226Z,75.36
2023-01-17T13:59:58.213Z,73.93
2023-01-17T14:02:32.689Z,74.90
2023-01-17T14:05:05.755Z,75.87
2023-01-17T14:07:34.589Z,76.24
2023-01-17T14:10:01.990Z,76.10
2023-01-17T14:12:32.562Z,76.29
2023-01-17T14:15:00.599Z,76.53
2023-01-17T14:17:34.913Z,75.23
2023-01-17T14:20:05.163Z,74.10
2023-01-17T14:22:35.547Z,75.04
2023-01-17T14:25:11.641Z,75.45
2023-01-17T14:27:45.442Z,77.43
2023-01-17T14:30:30.805Z,77.67
2023-01-17T14:33:01.851Z,78.00
2023-01-17T14:35:32.973Z,77.86
2023-01-17T14:38:03.007Z,78.09
2023-01-17T14:40:30.850Z,78.60
2023-01-17T14:43:01.613Z,79.06
2023-01-17T14:45:30.257Z,79.11
2023-01-17T14:48:01.436Z,77.32
2023-01-17T14:50:35.032Z,76.54
2023-01-17T14:53:11.326Z,77.11
2023-01-17T14:55:38.971Z,76.80
2023-01-17T14:58:05.656Z,78.02
2023-01-17T15:00:39.016Z,77.91
2023-01-17T15:03:10.624Z,77.81
2023-01-17T15:05:40.249Z,78.66
2023-01-17T15:08:11.403Z,79.21
2023-01-17T15:10:46.518Z,79.71
2023-01-17T15:13:18.094Z,80.13
2023-01-17T15:15:45.031Z,80.87
2023-01-17T15:18:14.867Z,80.92
2023-01-17T15:20:42.503Z,79.66
2023-01-17T15:23:14.285Z,81.08
2023-01-17T15:25:42.980Z,79.00
2023-01-17T15:28:11.663Z,79.84
2023-01-17T15:30:59.505Z,80.76
2023-01-17T15:33:26.130Z,82.11
2023-01-17T15:36:07.442Z,82.39
2023-01-17T15:38:39.261Z,83.01
2023-01-17T15:41:17.129Z,83.67
2023-01-17T15:43:44.960Z,82.46
2023-01-17T15:46:23.312Z,83.51
2023-01-17T15:48:51.614Z,83.92
2023-01-17T15:51:31.829Z,84.05
2023-01-17T15:53:58.711Z,84.60
2023-01-17T15:56:32.993Z,84.82
2023-01-17T15:59:20.613Z,85.17
2023-01-17T16:01:57.402Z,85.43
2023-01-17T16:04:42.840Z,82.38
2023-01-17T16:07:11.409Z,81.86
2023-01-17T16:09:43.019Z,82.43
2023-01-17T16:12:09.940Z,81.52
2023-01-17T16:14:56.363Z,81.40
2023-01-17T16:17:24.928Z,82.79
2023-01-17T16:19:51.992Z,84.05
2023-01-17T16:22:18.710Z,84.10
2023-01-17T16:24:46.426Z,85.76
2023-01-17T16:27:13.395Z,84.92
2023-01-17T16:29:41.330Z,85.37
2023-01-17T16:32:08.978Z,85.86
2023-01-17T16:34:36.451Z,86.66
2023-01-17T16:37:07.972Z,86.97
2023-01-17T16:39:35.817Z,87.13
2023-01-17T16:42:03.168Z,87.97
2023-01-17T16:44:30.535Z,88.47
2023-01-17T16:47:03.711Z,88.47
2023-01-17T16:49:34.718Z,87.36
2023-01-17T16:52:01.609Z,87.84
2023-01-17T16:54:28.947Z,88.93
2023-01-17T16:56:55.624Z,88.90
2023-01-17T16:59:22.323Z,90.25
2023-01-17T17:01:50.506Z,90.13
2023-01-17T17:04:17.203Z,89.74
2023-01-17T17:06:44.344Z,90.30
2023-01-17T17:09:10.964Z,91.09
2023-01-17T17:11:38.106Z,91.52
2023-01-17T17:14:06.516Z,91.49
2023-01-17T17:16:34.182Z,91.95
2023-01-17T17:19:05.491Z,92.35
2023-01-17T17:21:34.023Z,91.75
2023-01-17T17:24:01.573Z,91.95
2023-01-17T17:26:34.466Z,91.88
2023-01-17T17:29:02.060Z,92.52
2023-01-17T17:31:29.191Z,92.66
2023-01-17T17:34:00.775Z,92.88
2023-01-17T17:36:27.650Z,92.85
2023-01-17T17:38:55.787Z,92.52
2023-01-17T17:41:23.950Z,92.69
2023-01-17T17:43:52.197Z,93.75
2023-01-17T17:46:20.676Z,93.29
2023-01-17T17:48:47.715Z,93.89
2023-01-17T17:51:22.828Z,93.63
2023-01-17T17:53:50.166Z,94.36
2023-01-17T17:56:16.932Z,94.83
2023-01-17T17:58:46.072Z,94.71
2023-01-17T18:01:13.401Z,94.79
2023-01-17T18:03:40.224Z,94.56
2023-01-17T18:06:10.291Z,94.68
2023-01-17T18:08:37.952Z,95.01
2023-01-17T18:11:06.471Z,95.13
2023-01-17T18:13:34.307Z,94.88
2023-01-17T18:16:01.896Z,94.92
2023-01-17T18:18:31.217Z,95.28
2023-01-17T18:21:17.748Z,95.71
2023-01-17T18:23:45.071Z,95.66
2023-01-17T18:26:17.179Z,96.23
2023-01-17T18:28:44.566Z,95.82
2023-01-17T18:31:12.363Z,96.15
2023-01-17T18:33:39.648Z,95.45
2023-01-17T18:36:07.669Z,95.69
2023-01-17T18:38:40.351Z,95.76
2023-01-17T18:41:08.559Z,96.30
2023-01-17T18:43:36.607Z,96.05
2023-01-17T18:46:04.361Z,95.74
2023-01-17T18:48:31.363Z,96.19
2023-01-17T18:51:00.484Z,96.18
2023-01-17T18:53:28.940Z,95.73
2023-01-17T18:55:57.231Z,95.98
2023-01-17T18:58:25.283Z,96.12
2023-01-17T19:00:52.898Z,97.20
2023-01-17T19:03:25.008Z,97.05
2023-01-17T19:05:52.244Z,96.77
2023-01-17T19:08:19.967Z,96.63
2023-01-17T19:10:48.430Z,96.52
2023-01-17T19:13:15.452Z,96.92
2023-01-17T19:15:42.049Z,97.17
2023-01-17T19:18:08.631Z,97.41
2023-01-17T19:20:35.430Z,97.24
2023-01-17T19:23:02.278Z,97.09
2023-01-17T19:25:31.131Z,97.23
2023-01-17T19:27:58.559Z,97.24
2023-01-17T19:30:26.078Z,96.91
2023-01-17T19:32:53.193Z,97.51
2023-01-17T19:35:22.527Z,96.90
2023-01-17T19:37:50.920Z,97.32
2023-01-17T19:40:19.629Z,96.86
2023-01-17T19:42:46.714Z,97.05
2023-01-17T19:45:14.415Z,96.84
2023-01-17T19:47:41.716Z,97.11
2023-01-17T19:50:12.106Z,97.38
2023-01-17T19:52:39.761Z,97.47
2023-01-17T19:55:12.597Z,97.63
2023-01-17T19:57:40.643Z,98.01
2023-01-17T20:00:08.960Z,97.68
2023-01-17T20:02:37.831Z,97.46
2023-01-17T20:05:05.743Z,96.73
2023-01-17T20:07:34.708Z,97.26
2023-01-17T20:10:02.116Z,97.14
2023-01-17T20:12:28.938Z,97.18
2023-01-17T20:14:56.395Z,96.77
2023-01-17T20:17:23.484Z,97.83
2023-01-17T20:19:50.776Z,97.08
2023-01-17T20:22:17.411Z,97.63
2023-01-17T20:24:44.368Z,98.01
2023-01-17T20:27:11.475Z,97.75
2023-01-17T20:29:40.762Z,97.49
2023-01-17T20:32:08.032Z,97.88
2023-01-17T20:34:35.627Z,97.81
2023-01-17T20:37:02.626Z,97.81
2023-01-17T20:39:30.486Z,97.43
2023-01-17T20:41:57.665Z,96.91
2023-01-17T20:44:25.565Z,96.90
2023-01-17T20:46:52.597Z,97.69
2023-01-17T20:49:19.903Z,97.56
2023-01-17T20:51:47.608Z,97.83
2023-01-17T20:54:17.367Z,98.15
2023-01-17T20:56:47.084Z,98.43
2023-01-17T20:59:15.202Z,97.96
2023-01-17T21:01:43.716Z,98.27
2023-01-17T21:04:10.999Z,98.14
2023-01-17T21:06:39.777Z,98.25
2023-01-17T21:09:07.446Z,97.53
2023-01-17T21:11:34.481Z,97.60
2023-01-17T21:14:01.806Z,98.19
2023-01-17T21:16:28.799Z,98.19
2023-01-17T21:18:56.540Z,97.73
2023-01-17T21:21:25.311Z,97.67
2023-01-17T21:23:57.281Z,97.57
2023-01-17T21:26:28.525Z,97.86
2023-01-17T21:28:56.320Z,98.11
2023-01-17T21:31:27.717Z,98.18
2023-01-17T21:33:59.571Z,98.31
2023-01-17T21:36:27.932Z,98.64
2023-01-17T21:38:57.022Z,98.25
2023-01-17T21:41:26.620Z,98.39
2023-01-17T21:43:55.221Z,98.62
2023-01-17T21:46:22.850Z,98.71
2023-01-17T21:48:49.368Z,98.62
2023-01-17T21:51:16.707Z,98.76
2023-01-17T21:53:43.441Z,98.36
2023-01-17T21:56:30.163Z,99.16
2023-01-17T21:58:57.279Z,98.86
2023-01-17T22:01:28.959Z,98.99
2023-01-17T22:03:55.730Z,98.84
2023-01-17T22:06:24.897Z,98.17
2023-01-17T22:08:52.493Z,97.54
2023-01-17T22:11:21.609Z,97.48
2023-01-17T22:13:50.056Z,98.04
2023-01-17T22:16:18.096Z,98.16
2023-01-17T22:18:46.047Z,98.40
2023-01-17T22:21:16.791Z,98.44
2023-01-17T22:23:47.658Z,98.04
2023-01-17T22:26:14.781Z,98.28
2023-01-17T22:32:21.676Z,97.61
2023-01-17T22:34:48.656Z,97.90
2023-01-17T22:37:15.998Z,97.46
2023-01-17T22:39:43.453Z,97.96
2023-01-17T22:42:11.564Z,97.87
2023-01-17T22:44:38.415Z,97.50
2023-01-17T22:47:05.958Z,97.69
2023-01-17T22:49:36.928Z,97.55
2023-01-17T22:52:04.891Z,97.22
2023-01-17T22:54:31.867Z,97.25
2023-01-17T22:56:59.787Z,97.48
2023-01-17T22:59:26.720Z,97.47
2023-01-17T23:01:53.784Z,97.78
2023-01-17T23:04:20.449Z,98.11
2023-01-17T23:06:47.919Z,97.30
2023-01-17T23:09:15.314Z,97.73
2023-01-17T23:11:44.972Z,97.82
2023-01-17T23:14:12.198Z,98.21
2023-01-17T23:16:59.684Z,98.15
2023-01-17T23:19:28.897Z,98.55
2023-01-17T23:22:16.140Z,98.41
2023-01-17T23:24:52.049Z,98.49
2023-01-17T23:27:37.414Z,98.70
2023-01-17T23:30:34.439Z,98.67
2023-01-17T23:33:03.124Z,98.84
2023-01-17T23:35:31.156Z,98.44
2023-01-17T23:38:16.776Z,98.13
2023-01-17T23:41:04.300Z,98.12
2023-01-17T23:43:31.604Z,97.91
2023-01-17T23:45:58.276Z,98.16
2023-01-17T23:48:29.091Z,98.28
2023-01-17T23:50:57.668Z,98.50
2023-01-17T23:53:26.006Z,98.35
2023-01-17T23:55:53.620Z,98.56
2023-01-17T23:58:21.414Z,98.44
